Time;durP1;ratioP1;P1;durP2;ratioP2;P2;SDS_P1;SDS_P2;PMS_P1;PMS_P2;Temp;Humidity;BMP_temperature;BMP_pressure;BME280_temperature;BME280_humidity;BME280_pressure;Samples;Min_cycle;Max_cycle;Signal;HPM_P1;HPM_P2
2023/06/16 00:01:15;;;;;;;6.00;3.50;;;;;;;11.14;83.29;100491.33;104756;1265;73770;-67
2023/06/16 00:03:49;;;;;;;5.40;4.00;;;;;;;11.14;83.05;100495.16;104852;1265;69262;-60
2023/06/16 00:06:19;;;;;;;5.80;4.00;;;;;;;11.12;83.07;100495.77;104914;1266;69210;-63
2023/06/16 00:08:55;;;;;;;4.70;3.60;;;;;;;11.09;82.95;100495.70;104852;1266;75725;-64
2023/06/16 00:11:27;;;;;;;5.20;4.30;;;;;;;11.06;83.00;100495.83;104892;1265;83822;-64
2023/06/16 00:13:57;;;;;;;4.00;3.60;;;;;;;11.05;82.99;100495.00;104866;1261;72569;-61
2023/06/16 00:16:26;;;;;;;5.10;3.80;;;;;;;11.02;83.02;100493.02;104757;1265;69718;-67
2023/06/16 00:18:57;;;;;;;5.60;4.00;;;;;;;10.99;83.11;100490.15;104854;1267;69202;-63
2023/06/16 00:21:29;;;;;;;7.10;4.40;;;;;;;10.97;83.20;100488.65;104859;1265;74776;-63
2023/06/16 00:23:58;;;;;;;4.90;3.80;;;;;;;10.95;83.25;100489.59;104887;1265;83405;-63
2023/06/16 00:26:27;;;;;;;5.20;4.20;;;;;;;10.94;83.31;100490.50;104874;1267;73447;-66
2023/06/16 00:28:55;;;;;;;7.10;4.20;;;;;;;10.92;83.43;100487.96;104870;1265;69241;-65
2023/06/16 00:31:29;;;;;;;5.60;4.30;;;;;;;10.92;83.51;100485.86;104882;1265;69210;-64
2023/06/16 00:33:58;;;;;;;4.90;4.20;;;;;;;10.92;83.65;100483.92;104907;1264;74706;-62
2023/06/16 00:36:27;;;;;;;6.60;4.60;;;;;;;10.92;83.75;100487.25;104872;1261;83522;-63
2023/06/16 00:38:58;;;;;;;6.20;4.60;;;;;;;10.91;83.82;100484.16;104856;1261;73924;-61
2023/06/16 00:41:27;;;;;;;4.50;4.00;;;;;;;10.86;83.62;100481.54;104915;1266;69311;-62
2023/06/16 00:43:56;;;;;;;7.70;4.70;;;;;;;10.83;83.53;100481.83;104846;1260;69252;-62
2023/06/16 00:46:30;;;;;;;6.50;4.40;;;;;;;10.81;83.87;100482.25;104844;1266;75923;-65
2023/06/16 00:48:59;;;;;;;5.60;4.40;;;;;;;10.81;84.04;100483.30;104785;1265;83030;-63
2023/06/16 00:51:28;;;;;;;5.00;4.10;;;;;;;10.80;84.06;100486.27;104858;1265;72749;-64
2023/06/16 00:53:59;;;;;;;5.80;5.20;;;;;;;10.78;84.07;100483.76;104795;1260;69186;-62
2023/06/16 00:56:28;;;;;;;5.80;4.50;;;;;;;10.81;84.64;100478.57;104868;1260;69158;-62
2023/06/16 00:58:59;;;;;;;7.60;4.80;;;;;;;10.82;84.37;100472.77;104843;1269;75922;-63
2023/06/16 01:01:40;;;;;;;;;;;;;;;;;;;;;
2023/06/16 01:04:15;;;;;;;5.20;4.60;;;;;;;10.80;84.13;100471.60;104800;1267;73963;-64
2023/06/16 01:06:57;;;;;;;5.50;4.90;;;;;;;10.76;83.95;100466.35;104909;1267;69230;-64
2023/06/16 01:10:12;;;;;;;6.00;5.30;;;;;;;10.70;83.84;100472.66;104818;1267;69522;-63
2023/06/16 01:13:19;;;;;;;6.00;4.90;;;;;;;10.66;84.08;100466.90;104862;1260;74624;-63
2023/06/16 01:15:52;;;;;;;6.10;5.40;;;;;;;10.61;83.95;100471.95;104919;1260;81981;-63
2023/06/16 01:18:22;;;;;;;7.50;5.10;;;;;;;10.59;84.27;100470.30;104766;1260;74008;-62
2023/06/16 01:21:38;;;;;;;7.70;5.00;;;;;;;10.59;84.32;100471.89;104751;1270;69330;-62
2023/06/16 01:24:14;;;;;;;5.80;4.80;;;;;;;10.57;84.48;100471.09;104861;1261;69228;-63
2023/06/16 01:26:52;;;;;;;6.40;4.80;;;;;;;10.53;84.35;100469.45;104771;1268;75856;-64
2023/06/16 01:29:23;;;;;;;5.50;4.60;;;;;;;10.48;84.31;100470.48;104808;1266;83240;-65
2023/06/16 01:31:53;;;;;;;5.70;5.10;;;;;;;10.46;84.50;100471.09;104906;1260;73791;-62
2023/06/16 01:34:27;;;;;;;7.60;5.00;;;;;;;10.43;84.34;100470.33;104900;1265;69148;-64
2023/06/16 01:36:58;;;;;;;5.50;4.80;;;;;;;10.39;84.26;100471.89;104817;1260;69215;-65
2023/06/16 01:39:31;;;;;;;6.10;4.70;;;;;;;10.37;84.48;100471.23;104779;1261;75958;-61
2023/06/16 01:42:02;;;;;;;6.30;5.10;;;;;;;10.35;84.34;100470.41;104931;1260;83746;-62
2023/06/16 01:44:32;;;;;;;6.20;5.10;;;;;;;10.30;84.33;100469.05;104779;1266;73601;-62
2023/06/16 01:47:04;;;;;;;6.30;5.10;;;;;;;10.24;84.29;100469.19;104882;1266;69204;-62
2023/06/16 01:49:36;;;;;;;5.90;5.10;;;;;;;10.17;83.95;100465.95;104901;1261;69132;-64
2023/06/16 01:52:06;;;;;;;9.50;5.30;;;;;;;10.12;84.33;100467.88;104839;1267;74786;-63
2023/06/16 01:54:39;;;;;;;6.20;5.10;;;;;;;10.15;84.79;100470.39;104881;1260;83913;-65
2023/06/16 01:57:13;;;;;;;7.50;5.70;;;;;;;10.14;84.68;100466.05;104859;1267;73609;-66
2023/06/16 01:59:51;;;;;;;7.80;5.30;;;;;;;10.12;84.72;100472.96;104901;1260;69145;-68
2023/06/16 02:02:27;;;;;;;6.20;5.60;;;;;;;10.09;84.95;100468.15;104874;1267;69177;-69
2023/06/16 02:04:59;;;;;;;8.50;6.10;;;;;;;10.07;84.73;100470.48;104763;1266;75884;-66
2023/06/16 02:07:32;;;;;;;9.30;6.10;;;;;;;10.05;84.97;100470.54;104841;1267;83157;-67
2023/06/16 02:10:02;;;;;;;9.00;6.00;;;;;;;10.02;84.79;100473.96;104885;1260;73786;-68
2023/06/16 02:12:35;;;;;;;8.40;5.80;;;;;;;9.98;84.85;100468.70;104708;1260;69309;-67
2023/06/16 02:15:05;;;;;;;10.40;5.80;;;;;;;9.94;84.91;100469.70;104954;1261;69211;-65
2023/06/16 02:17:36;;;;;;;7.20;5.60;;;;;;;9.94;85.14;100471.98;104891;1266;75703;-66
2023/06/16 02:20:08;;;;;;;7.20;5.90;;;;;;;9.97;85.44;100475.37;104915;1267;82556;-67
2023/06/16 02:22:38;;;;;;;7.20;5.50;;;;;;;10.00;85.58;100474.39;104859;1265;73576;-67
2023/06/16 02:25:07;;;;;;;6.10;5.50;;;;;;;10.02;85.55;100475.90;104856;1260;69203;-70
2023/06/16 02:27:40;;;;;;;8.40;5.80;;;;;;;10.01;85.56;100471.58;104926;1267;69183;-68
2023/06/16 02:30:11;;;;;;;7.90;5.80;;;;;;;10.01;85.82;100471.93;104901;1260;74793;-66
2023/06/16 02:32:40;;;;;;;;;;;;;;;10.02;85.89;100471.17;104890;1260;82125;-68
2023/06/16 02:35:30;;;;;;;8.30;5.70;;;;;;;10.01;86.15;100472.95;104888;1267;73750;-65
2023/06/16 02:37:59;;;;;;;7.10;5.60;;;;;;;10.02;86.25;100471.87;104865;1264;69259;-64
2023/06/16 02:40:28;;;;;;;5.70;5.10;;;;;;;10.03;86.48;100467.64;104923;1267;69305;-64
2023/06/16 02:42:57;;;;;;;7.90;5.00;;;;;;;10.04;86.49;100469.36;104928;1266;74388;-66
2023/06/16 02:45:25;;;;;;;6.60;5.30;;;;;;;10.07;86.81;100467.01;104886;1260;83515;-68
2023/06/16 02:47:54;;;;;;;6.00;5.20;;;;;;;10.07;86.73;100465.94;104748;1266;74003;-68
2023/06/16 02:50:25;;;;;;;5.60;5.10;;;;;;;10.09;86.78;100470.06;104877;1262;69254;-63
2023/06/16 02:52:57;;;;;;;8.50;6.00;;;;;;;10.11;86.88;100474.71;104840;1260;69214;-65
2023/06/16 02:55:26;;;;;;;6.80;5.00;;;;;;;10.14;87.08;100479.16;104932;1260;74769;-65
2023/06/16 02:57:55;;;;;;;5.80;5.10;;;;;;;10.15;87.05;100474.08;104946;1265;82657;-63
2023/06/16 03:00:25;;;;;;;8.60;5.30;;;;;;;10.16;86.91;100475.95;104832;1264;73097;-64
2023/06/16 03:03:30;;;;;;;7.50;6.00;;;;;;;10.15;86.81;100477.35;104601;1263;69291;-67
2023/06/16 03:06:16;;;;;;;8.50;5.90;;;;;;;10.16;86.83;100470.71;104888;1260;69261;-64
2023/06/16 03:08:47;;;;;;;7.40;6.00;;;;;;;10.16;86.84;100470.00;104838;1262;74395;-68
2023/06/16 03:11:20;;;;;;;6.70;5.50;;;;;;;10.18;87.04;100467.86;104849;1260;83442;-63
2023/06/16 03:13:57;;;;;;;8.90;5.90;;;;;;;10.20;87.07;100464.62;104908;1262;72818;-65
2023/06/16 03:16:27;;;;;;;9.40;6.10;;;;;;;10.25;87.30;100462.02;104941;1260;69206;-63
2023/06/16 03:19:00;;;;;;;8.30;6.30;;;;;;;10.31;87.52;100462.20;104914;1261;69174;-64
2023/06/16 03:21:30;;;;;;;7.60;6.10;;;;;;;10.35;87.57;100458.02;104924;1265;75179;-64
2023/06/16 03:23:58;;;;;;;10.60;6.00;;;;;;;10.37;87.67;100458.67;104814;1260;83480;-67
2023/06/16 03:26:31;;;;;;;8.60;5.70;;;;;;;10.39;87.67;100457.20;104872;1260;73559;-65
2023/06/16 03:29:17;;;;;;;10.00;6.70;;;;;;;10.41;87.97;100450.12;104882;1267;69301;-61
2023/06/16 03:31:51;;;;;;;6.70;6.00;;;;;;;10.47;88.12;100448.87;104802;1260;69175;-64
2023/06/16 03:34:23;;;;;;;7.00;5.80;;;;;;;10.50;87.95;100452.43;104750;1263;75834;-61
2023/06/16 03:36:57;;;;;;;8.90;6.30;;;;;;;10.54;88.11;100450.91;104899;1260;82082;-65
2023/06/16 03:39:33;;;;;;;6.90;6.20;;;;;;;10.58;88.27;100449.52;104727;1265;73833;-63
2023/06/16 03:42:02;;;;;;;8.70;6.30;;;;;;;10.65;88.67;100446.30;104804;1260;69132;-65
2023/06/16 03:44:31;;;;;;;11.00;6.60;;;;;;;10.72;88.81;100448.67;104834;1260;69223;-62
2023/06/16 03:47:02;;;;;;;8.50;5.90;;;;;;;10.78;88.71;100447.92;104853;1260;75933;-64
2023/06/16 03:49:31;;;;;;;8.20;6.00;;;;;;;10.81;88.65;100450.42;104864;1265;81659;-66
2023/06/16 03:52:00;;;;;;;7.80;6.30;;;;;;;10.86;88.75;100451.11;104859;1260;72933;-65
2023/06/16 03:54:30;;;;;;;8.10;6.30;;;;;;;10.94;89.04;100450.98;104913;1261;69173;-65
2023/06/16 03:57:02;;;;;;;8.80;7.00;;;;;;;11.02;89.18;100452.61;104918;1265;69190;-66
2023/06/16 03:59:31;;;;;;;8.10;6.90;;;;;;;11.10;89.41;100452.48;104923;1265;74655;-67
2023/06/16 04:02:06;;;;;;;8.20;6.10;;;;;;;11.14;89.20;100456.86;104928;1265;83358;-62
2023/06/16 04:04:37;;;;;;;7.60;6.10;;;;;;;11.17;88.99;100459.21;104890;1260;73451;-63
2023/06/16 04:07:06;;;;;;;9.60;6.50;;;;;;;11.21;89.15;100458.20;104861;1260;69106;-58
2023/06/16 04:09:34;;;;;;;8.90;8.00;;;;;;;11.29;89.51;100452.77;104862;1261;69102;-59
2023/06/16 04:12:03;;;;;;;7.00;6.30;;;;;;;11.40;89.95;100452.17;104971;1260;75061;-59
2023/06/16 04:14:33;;;;;;;;;;;;;;;11.50;89.98;100458.08;104975;1264;83288;-58
2023/06/16 04:17:02;;;;;;;9.80;7.40;;;;;;;11.56;89.92;100458.73;104974;1263;72858;-58
2023/06/16 04:19:30;;;;;;;10.60;7.00;;;;;;;11.63;89.92;100463.86;104915;1260;69186;-58
2023/06/16 04:21:59;;;;;;;8.60;7.50;;;;;;;11.73;89.85;100461.36;104820;1264;69220;-58
2023/06/16 04:24:31;;;;;;;11.00;7.80;;;;;;;11.84;89.74;100458.50;104848;1260;75316;-58
2023/06/16 04:27:02;;;;;;;13.00;7.40;;;;;;;11.98;90.20;100452.64;104791;1260;83503;-58
2023/06/16 04:29:32;;;;;;;8.00;7.10;;;;;;;12.11;90.06;100452.98;104906;1261;74111;-58
2023/06/16 04:32:01;;;;;;;;;;;;;;;12.18;89.83;100451.48;105121;1260;69187;-58
2023/06/16 04:34:31;;;;;;;11.10;7.70;;;;;;;12.25;89.99;100455.55;104878;1261;69195;-58
2023/06/16 04:37:02;;;;;;;11.40;7.30;;;;;;;12.34;90.08;100449.55;104996;1259;75908;-54
2023/06/16 04:39:33;;;;;;;8.40;7.40;;;;;;;12.44;90.06;100449.09;104916;1260;82856;-56
2023/06/16 04:42:04;;;;;;;9.10;7.50;;;;;;;12.54;90.12;100446.95;104854;1262;73029;-55
2023/06/16 04:44:32;;;;;;;8.90;8.00;;;;;;;12.62;90.08;100445.30;104907;1263;69174;-58
2023/06/16 04:47:02;;;;;;;8.90;7.70;;;;;;;12.72;89.95;100450.30;104990;1264;69294;-58
2023/06/16 04:49:31;;;;;;;8.50;7.50;;;;;;;12.81;89.87;100445.91;104918;1267;73535;-64
2023/06/16 04:52:00;;;;;;;9.40;7.80;;;;;;;12.86;89.83;100442.83;104944;1260;82543;-59
2023/06/16 04:54:29;;;;;;;8.90;7.90;;;;;;;12.94;89.85;100440.03;104863;1267;73978;-60
2023/06/16 04:56:58;;;;;;;10.70;8.50;;;;;;;13.01;89.87;100431.81;104955;1264;69186;-62
2023/06/16 04:59:26;;;;;;;10.70;8.70;;;;;;;13.09;89.98;100430.75;105007;1264;69217;-62
2023/06/16 05:01:54;;;;;;;9.50;8.60;;;;;;;13.14;89.78;100428.90;104951;1264;76152;-63
2023/06/16 05:04:23;;;;;;;12.30;8.30;;;;;;;13.19;89.89;100428.14;104942;1260;82862;-62
2023/06/16 05:06:51;;;;;;;14.30;8.30;;;;;;;13.27;89.95;100426.02;104820;1260;73951;-62
2023/06/16 05:09:21;;;;;;;11.90;9.40;;;;;;;13.34;90.06;100428.34;104840;1261;69067;-61
2023/06/16 05:11:49;;;;;;;9.70;8.70;;;;;;;13.42;90.03;100433.42;104799;1260;69347;-60
2023/06/16 05:14:18;;;;;;;10.10;8.80;;;;;;;13.47;89.92;100428.77;104886;1267;75849;-61
2023/06/16 05:16:46;;;;;;;10.20;8.90;;;;;;;13.56;90.23;100427.30;105002;1259;82065;-61
2023/06/16 05:19:15;;;;;;;12.00;9.30;;;;;;;13.67;90.42;100423.61;104913;1267;72925;-62
2023/06/16 05:21:52;;;;;;;13.10;9.30;;;;;;;13.77;90.54;100423.42;104914;1262;69279;-61
2023/06/16 05:24:22;;;;;;;9.50;8.50;;;;;;;13.86;90.20;100421.42;104909;1267;69731;-60
2023/06/16 05:26:51;;;;;;;10.10;8.30;;;;;;;13.95;90.13;100419.23;105014;1260;75475;-61
2023/06/16 05:29:20;;;;;;;14.20;8.70;;;;;;;14.05;90.05;100419.77;104860;1265;83961;-61
2023/06/16 05:31:49;;;;;;;9.80;8.60;;;;;;;14.11;89.67;100420.52;104862;1264;73203;-62
2023/06/16 05:34:17;;;;;;;9.60;8.70;;;;;;;14.20;89.94;100419.51;105146;1260;69039;-64
2023/06/16 05:36:46;;;;;;;11.00;9.30;;;;;;;14.32;90.25;100423.64;104865;1261;69176;-63
2023/06/16 05:39:16;;;;;;;;;;;;;;;14.43;90.18;100423.41;104952;1260;75809;-65
2023/06/16 05:41:45;;;;;;;9.70;8.70;;;;;;;14.51;90.07;100422.95;104937;1263;83166;-64
2023/06/16 05:44:14;;;;;;;11.30;9.00;;;;;;;14.59;90.00;100422.75;104910;1260;73684;-64
2023/06/16 05:46:46;;;;;;;10.20;8.30;;;;;;;14.68;89.69;100424.02;104966;1260;69186;-64
2023/06/16 05:49:18;;;;;;;13.70;8.80;;;;;;;14.77;89.77;100424.09;104848;1264;69217;-64
2023/06/16 05:51:47;;;;;;;10.20;9.10;;;;;;;14.85;89.68;100421.86;105005;1259;75503;-61
2023/06/16 05:54:15;;;;;;;9.90;8.90;;;;;;;14.96;89.60;100424.11;104891;1261;83809;-61
2023/06/16 05:56:44;;;;;;;11.50;8.70;;;;;;;15.05;89.65;100425.71;104897;1260;73669;-62
2023/06/16 05:59:12;;;;;;;9.80;8.80;;;;;;;15.18;89.80;100425.55;104815;1260;291645;-61
2023/06/16 06:01:41;;;;;;;9.70;8.10;;;;;;;15.28;89.36;100427.10;104991;1264;69415;-61
2023/06/16 06:04:11;;;;;;;11.30;7.90;;;;;;;15.36;89.01;100430.84;104996;1259;75975;-61
2023/06/16 06:06:41;;;;;;;9.10;8.10;;;;;;;15.46;88.77;100432.09;104906;1265;83096;-60
2023/06/16 06:09:09;;;;;;;9.10;7.70;;;;;;;15.56;88.71;100428.16;104937;1264;72754;-60
2023/06/16 06:11:39;;;;;;;8.30;7.20;;;;;;;15.68;88.54;100427.48;104898;1260;69077;-61
2023/06/16 06:14:08;;;;;;;9.40;7.40;;;;;;;15.76;88.30;100422.41;105146;1264;69351;-61
2023/06/16 06:16:40;;;;;;;9.20;7.20;;;;;;;15.88;88.06;100423.52;105059;1260;75385;-60
2023/06/16 06:19:08;;;;;;;10.00;7.50;;;;;;;15.99;87.81;100423.38;104808;1260;83819;-62
2023/06/16 06:21:38;;;;;;;9.40;7.80;;;;;;;16.11;87.56;100426.91;105147;1266;73720;-62
2023/06/16 06:24:08;;;;;;;8.40;7.10;;;;;;;16.22;87.23;100428.86;105033;1264;69086;-63
2023/06/16 06:26:41;;;;;;;9.60;7.00;;;;;;;16.35;86.99;100428.83;104887;1261;69234;-65
2023/06/16 06:29:10;;;;;;;10.60;7.30;;;;;;;16.46;86.76;100433.07;104965;1261;75058;-62
2023/06/16 06:31:39;;;;;;;10.60;7.90;;;;;;;16.58;86.65;100430.23;105148;1259;83441;-63
2023/06/16 06:34:07;;;;;;;13.70;7.50;;;;;;;16.70;86.49;100430.55;104859;1265;73767;-65
2023/06/16 06:36:42;;;;;;;12.10;7.30;;;;;;;16.81;86.12;100434.80;104965;1259;69050;-65
2023/06/16 06:39:10;;;;;;;9.20;7.30;;;;;;;16.92;85.84;100434.85;104983;1259;69212;-63
2023/06/16 06:41:40;;;;;;;9.20;6.80;;;;;;;17.03;85.48;100432.04;104879;1259;75394;-61
2023/06/16 06:44:15;;;;;;;11.60;7.20;;;;;;;17.16;85.20;100434.58;104938;1260;82512;-64
2023/06/16 06:46:50;;;;;;;8.00;6.40;;;;;;;17.30;84.72;100433.53;104913;1265;73418;-62
2023/06/16 06:49:20;;;;;;;9.60;6.60;;;;;;;17.43;84.27;100436.54;104914;1260;68491;-61
2023/06/16 06:51:50;;;;;;;12.90;6.60;;;;;;;17.57;84.03;100438.12;104879;1264;69225;-63
2023/06/16 06:54:18;;;;;;;7.80;6.50;;;;;;;17.74;83.80;100441.07;104929;1264;75781;-63
2023/06/16 06:56:47;;;;;;;6.00;4.00;;;;;;;17.80;81.97;100444.54;104925;1264;82582;-58
2023/06/16 06:59:15;;;;;;;4.50;3.80;;;;;;;17.82;80.40;100440.34;104999;1259;73824;-53
2023/06/16 07:01:43;;;;;;;4.60;3.60;;;;;;;17.88;79.31;100436.27;104896;1259;69209;-56
2023/06/16 07:04:12;;;;;;;4.70;4.10;;;;;;;17.93;78.86;100440.70;104922;1261;69195;-56
2023/06/16 07:06:40;;;;;;;6.90;4.90;;;;;;;17.98;78.27;100443.54;105040;1260;75640;-57
2023/06/16 07:09:09;;;;;;;6.80;4.90;;;;;;;18.04;77.84;100446.33;105011;1264;83250;-57
2023/06/16 07:11:52;;;;;;;8.10;5.00;;;;;;;18.10;77.21;100445.20;104852;1264;73969;-56
2023/06/16 07:14:21;;;;;;;7.10;4.70;;;;;;;18.12;76.76;100441.39;104918;1261;69187;-57
2023/06/16 07:16:49;;;;;;;5.70;4.30;;;;;;;18.20;76.79;100444.14;104907;1260;69231;-58
2023/06/16 07:19:17;;;;;;;7.00;4.40;;;;;;;18.37;77.08;100441.75;104936;1259;74784;-56
2023/06/16 07:21:46;;;;;;;6.80;4.80;;;;;;;18.58;76.64;100443.68;104978;1264;83447;-58
2023/06/16 07:24:14;;;;;;;5.50;4.50;;;;;;;18.74;76.11;100443.99;104977;1260;73784;-57
2023/06/16 07:26:43;;;;;;;6.30;4.30;;;;;;;18.86;74.97;100439.24;104947;1264;69267;-56
2023/06/16 07:29:11;;;;;;;6.90;4.40;;;;;;;18.93;74.40;100440.34;105099;1259;69103;-57
2023/06/16 07:31:39;;;;;;;7.00;4.30;;;;;;;19.04;73.81;100440.07;104913;1259;75894;-57
2023/06/16 07:34:08;;;;;;;6.20;4.70;;;;;;;19.18;73.59;100439.08;105064;1260;83360;-56
2023/06/16 07:36:38;;;;;;;9.90;4.60;;;;;;;19.39;73.24;100444.86;104986;1264;72734;-57
2023/06/16 07:39:06;;;;;;;6.70;4.90;;;;;;;19.56;72.56;100444.27;104990;1260;69144;-57
2023/06/16 07:41:34;;;;;;;5.40;4.60;;;;;;;19.71;72.31;100443.00;104986;1260;68162;-57
2023/06/16 07:44:04;;;;;;;7.00;4.20;;;;;;;19.89;71.82;100441.14;105159;1262;76326;-58
2023/06/16 07:46:33;;;;;;;6.20;4.40;;;;;;;20.03;71.34;100437.80;104936;1259;83527;-57
2023/06/16 07:49:01;;;;;;;8.80;4.50;;;;;;;20.18;70.93;100438.06;105024;1259;73783;-57
2023/06/16 07:51:30;;;;;;;5.30;4.50;;;;;;;20.23;70.10;100439.44;104864;1260;69333;-59
2023/06/16 07:53:58;;;;;;;10.40;4.30;;;;;;;20.21;69.54;100436.37;104953;1260;69224;-59
2023/06/16 07:56:28;;;;;;;8.20;4.80;;;;;;;20.22;69.07;100436.48;104982;1259;75894;-60
2023/06/16 07:58:56;;;;;;;6.00;4.50;;;;;;;20.22;68.89;100438.28;105016;1264;83670;-59
2023/06/16 08:01:26;;;;;;;7.10;3.80;;;;;;;20.27;68.27;100440.69;104952;1264;73910;-59
2023/06/16 08:03:56;;;;;;;6.70;4.50;;;;;;;20.34;67.86;100438.42;104997;1260;69185;-60
2023/06/16 08:06:25;;;;;;;;;;;;;;;20.41;67.15;100438.93;105021;1259;69091;-59
2023/06/16 08:08:53;;;;;;;6.70;3.80;;;;;;;20.41;66.50;100433.08;105048;1263;75342;-57
2023/06/16 08:11:22;;;;;;;6.40;4.20;;;;;;;20.45;66.64;100436.98;105002;1264;83664;-58
2023/06/16 08:13:51;;;;;;;7.30;4.10;;;;;;;20.56;66.30;100433.77;104984;1264;73642;-59
2023/06/16 08:16:20;;;;;;;7.10;4.20;;;;;;;20.61;65.80;100439.55;105039;1260;69199;-62
2023/06/16 08:18:50;;;;;;;6.00;4.10;;;;;;;20.60;65.32;100441.80;105047;1259;69213;-59
2023/06/16 08:21:19;;;;;;;4.80;4.20;;;;;;;20.55;64.64;100440.73;105017;1259;75329;-59
2023/06/16 08:23:47;;;;;;;8.30;4.20;;;;;;;20.53;64.51;100435.94;105019;1260;82955;-57
2023/06/16 08:26:16;;;;;;;7.30;3.80;;;;;;;20.48;64.15;100435.70;104997;1259;73960;-60
2023/06/16 08:28:45;;;;;;;5.90;4.10;;;;;;;20.48;63.98;100435.58;105052;1264;69105;-58
2023/06/16 08:31:13;;;;;;;4.30;3.90;;;;;;;20.47;63.43;100434.05;105003;1260;69090;-58
2023/06/16 08:33:42;;;;;;;5.70;3.90;;;;;;;20.46;63.00;100430.20;104991;1264;74032;-60
2023/06/16 08:36:10;;;;;;;6.30;3.80;;;;;;;20.47;62.95;100429.80;104973;1260;82494;-65
2023/06/16 08:38:38;;;;;;;4.80;3.80;;;;;;;20.60;63.04;100429.15;104942;1264;72853;-63
2023/06/16 08:41:10;;;;;;;4.50;4.00;;;;;;;20.76;62.87;100424.68;104982;1264;69258;-60
2023/06/16 08:43:39;;;;;;;6.60;3.80;;;;;;;21.00;62.94;100422.77;105001;1264;69168;-66
2023/06/16 08:46:08;;;;;;;6.00;4.10;;;;;;;21.29;62.71;100420.63;104891;1266;74824;-61
2023/06/16 08:48:37;;;;;;;4.80;3.60;;;;;;;21.60;62.59;100420.98;105020;1263;84000;-60
2023/06/16 08:51:07;;;;;;;6.60;4.00;;;;;;;21.82;61.69;100416.80;104924;1259;72886;-60
2023/06/16 08:53:38;;;;;;;4.40;3.60;;;;;;;21.96;60.95;100419.32;104876;1260;69223;-59
2023/06/16 08:56:07;;;;;;;5.60;3.80;;;;;;;22.02;60.09;100417.20;105033;1260;69136;-60
2023/06/16 08:58:35;;;;;;;6.60;4.20;;;;;;;22.10;59.57;100415.17;104904;1266;75465;-62
2023/06/16 09:01:07;;;;;;;3.60;3.30;;;;;;;22.25;59.75;100412.29;104943;1259;82560;-60
2023/06/16 09:03:37;;;;;;;10.50;4.30;;;;;;;22.46;59.79;100408.02;104999;1260;74135;-60
2023/06/16 09:06:06;;;;;;;5.60;4.00;;;;;;;22.62;59.95;100405.87;105007;1264;69217;-59
2023/06/16 09:08:35;;;;;;;5.60;4.10;;;;;;;22.70;59.70;100407.62;105050;1260;69245;-58
2023/06/16 09:11:07;;;;;;;6.60;3.80;;;;;;;22.67;59.17;100409.16;105008;1264;76057;-59
2023/06/16 09:13:44;;;;;;;5.20;3.80;;;;;;;22.51;58.56;100406.83;104997;1260;83323;-59
2023/06/16 09:16:16;;;;;;;9.10;4.20;;;;;;;22.37;58.71;100407.38;104945;1261;73814;-59
2023/06/16 09:18:45;;;;;;;5.70;3.70;;;;;;;22.28;58.52;100412.23;104986;1264;69185;-59
2023/06/16 09:21:22;;;;;;;4.20;3.70;;;;;;;22.19;58.02;100413.64;104955;1260;69150;-57
2023/06/16 09:24:00;;;;;;;6.00;4.00;;;;;;;22.09;57.99;100413.48;105016;1264;74668;-62
2023/06/16 09:26:35;;;;;;;4.90;3.60;;;;;;;22.02;57.96;100413.46;105008;1264;83194;-59
2023/06/16 09:29:21;;;;;;;7.00;4.20;;;;;;;22.00;58.00;100410.35;104984;1260;72782;-60
2023/06/16 09:31:50;;;;;;;5.80;4.00;;;;;;;22.09;58.57;100407.27;104963;1264;69153;-59
2023/06/16 09:34:19;;;;;;;6.10;4.30;;;;;;;22.39;59.05;100402.02;105046;1264;69198;-59
2023/06/16 09:36:47;;;;;;;8.10;4.10;;;;;;;22.73;57.76;100404.55;104993;1264;74979;-62
2023/06/16 09:39:26;;;;;;;4.90;3.90;;;;;;;22.92;57.12;100398.06;105023;1262;83355;-59
2023/06/16 09:41:55;;;;;;;6.60;4.30;;;;;;;22.99;56.62;100392.52;104986;1264;73552;-58
2023/06/16 09:44:24;;;;;;;5.50;3.90;;;;;;;23.23;56.73;100389.29;105009;1260;69148;-60
2023/06/16 09:46:54;;;;;;;4.50;4.00;;;;;;;23.52;56.41;100398.92;104840;1259;69192;-64
2023/06/16 09:49:25;;;;;;;4.20;3.90;;;;;;;23.61;55.63;100392.75;104975;1261;75905;-60
2023/06/16 09:51:55;;;;;;;6.60;4.20;;;;;;;23.59;54.94;100388.88;104973;1259;83664;-62
2023/06/16 09:54:25;;;;;;;6.10;4.20;;;;;;;23.54;54.42;100388.98;104998;1264;72756;-59
2023/06/16 09:56:59;;;;;;;4.30;3.80;;;;;;;23.51;54.28;100388.70;104984;1260;69209;-59
2023/06/16 09:59:28;;;;;;;5.80;3.90;;;;;;;23.46;53.93;100386.34;105030;1260;69234;-60
2023/06/16 10:01:58;;;;;;;4.00;3.60;;;;;;;23.39;53.71;100386.18;105023;1264;75128;-61
2023/06/16 10:04:29;;;;;;;6.10;3.90;;;;;;;23.40;53.83;100386.50;104841;1260;82710;-60
2023/06/16 10:07:02;;;;;;;6.30;3.70;;;;;;;23.50;53.76;100382.40;104833;1260;73903;-61
2023/06/16 10:09:44;;;;;;;6.20;3.80;;;;;;;23.58;53.62;100382.17;104988;1260;69183;-58
2023/06/16 10:12:32;;;;;;;5.90;4.30;;;;;;;23.84;53.72;100381.16;104870;1264;69199;-63
2023/06/16 10:15:03;;;;;;;6.00;3.80;;;;;;;24.17;53.25;100376.54;105027;1265;74164;-60
2023/06/16 10:17:34;;;;;;;5.80;4.30;;;;;;;24.44;52.70;100373.44;105016;1264;83237;-57
2023/06/16 10:20:05;;;;;;;4.90;3.80;;;;;;;24.55;52.05;100369.55;104830;1266;73816;-60
2023/06/16 10:22:34;;;;;;;6.10;3.90;;;;;;;24.58;51.62;100372.82;104849;1266;69228;-58
2023/06/16 10:25:03;;;;;;;4.50;3.80;;;;;;;24.48;50.81;100371.98;105055;1260;69286;-59
2023/06/16 10:27:33;;;;;;;;;;;;;;;24.34;50.40;100376.64;105055;1260;75627;-63
2023/06/16 10:30:02;;;;;;;5.30;4.00;;;;;;;24.17;50.19;100377.21;104861;1259;82506;-62
2023/06/16 10:32:30;;;;;;;;;;;;;;;23.86;50.19;100378.85;104871;1267;73822;-59
2023/06/16 10:35:00;;;;;;;4.70;3.60;;;;;;;23.54;50.22;100380.55;104991;1264;69126;-60
2023/06/16 10:37:29;;;;;;;4.40;3.80;;;;;;;23.32;50.77;100380.02;104883;1260;69212;-58
2023/06/16 10:40:07;;;;;;;6.40;3.90;;;;;;;23.17;51.09;100380.77;104858;1260;74749;-60
2023/06/16 10:42:39;;;;;;;4.30;3.70;;;;;;;22.98;51.06;100377.94;105031;1264;83730;-60
2023/06/16 10:45:27;;;;;;;4.50;3.90;;;;;;;22.82;51.21;100380.46;104990;1264;73849;-60
2023/06/16 10:48:01;;;;;;;7.70;4.00;;;;;;;22.63;51.22;100384.41;104993;1264;69201;-62
2023/06/16 10:50:31;;;;;;;5.90;3.40;;;;;;;22.44;51.35;100383.25;105004;1259;69259;-59
2023/06/16 10:53:13;;;;;;;7.60;3.90;;;;;;;22.27;51.53;100386.47;105001;1264;75000;-60
2023/06/16 10:55:43;;;;;;;6.40;3.90;;;;;;;22.10;51.66;100393.31;105021;1259;83325;-63
2023/06/16 10:58:18;;;;;;;10.30;3.90;;;;;;;21.83;51.71;100393.59;104983;1260;73506;-58
2023/06/16 11:01:02;;;;;;;7.00;4.40;;;;;;;21.52;51.76;100400.46;105013;1259;69487;-61
2023/06/16 11:03:34;;;;;;;6.50;4.40;;;;;;;21.22;52.70;100405.06;105012;1264;69299;-64
2023/06/16 11:06:03;;;;;;;7.60;4.50;;;;;;;20.88;53.55;100407.22;105061;1260;75723;-60
2023/06/16 11:08:52;;;;;;;7.10;4.60;;;;;;;20.53;54.45;100405.58;105049;1259;82874;-62
2023/06/16 11:11:22;;;;;;;5.10;4.50;;;;;;;20.15;56.27;100412.59;104909;1259;71456;-60
2023/06/16 11:13:50;;;;;;;7.00;4.60;;;;;;;19.77;57.78;100414.39;104980;1260;69222;-62
2023/06/16 11:16:19;;;;;;;12.50;5.10;;;;;;;19.44;59.00;100417.22;104834;1260;69118;-64
2023/06/16 11:18:50;;;;;;;7.70;4.90;;;;;;;19.18;60.65;100417.51;104940;1259;75887;-61
2023/06/16 11:21:18;;;;;;;7.50;5.00;;;;;;;19.03;61.84;100418.20;104979;1260;83554;-63
2023/06/16 11:23:47;;;;;;;6.80;5.20;;;;;;;18.88;62.81;100416.64;104895;1265;72623;-61
2023/06/16 11:26:17;;;;;;;6.20;5.20;;;;;;;18.71;64.21;100413.54;104983;1260;69279;-60
2023/06/16 11:28:47;;;;;;;6.10;5.20;;;;;;;18.71;65.51;100411.27;104931;1264;69148;-59
2023/06/16 11:31:16;;;;;;;5.40;4.10;;;;;;;18.78;66.03;100403.33;105008;1264;74738;-60
2023/06/16 11:33:45;;;;;;;6.30;4.70;;;;;;;18.97;66.81;100401.25;104880;1266;83412;-60
2023/06/16 11:36:17;;;;;;;5.20;4.10;;;;;;;19.26;67.31;100399.75;104955;1264;72671;-60
2023/06/16 11:38:51;;;;;;;7.40;4.60;;;;;;;19.56;67.74;100398.37;104943;1260;69221;-60